Time,TemperatureF,DewpointF,PressureIn,WindDirection,WindDirectionDegrees,WindSpeedMPH,WindSpeedGustMPH,Humidity,HourlyPrecipIn,Conditions,Clouds,dailyrainin,SoftwareType,DateUTC
2014-03-01 00:23:00,9.0,-6.0,30.40,NNW,345,8.0,10.0,50,0.00,,,0.00,,2014-03-01 05:23:00,
2014-03-01 00:53:00,9.0,-6.0,30.40,North,350,6.0,7.0,49,0.00,,,0.00,,2014-03-01 05:53:00,
2014-03-01 01:22:00,9.0,-6.0,30.40,North,350,7.0,10.0,49,0.00,,,0.00,,2014-03-01 06:22:00,
2014-03-01 01:42:00,9.0,-7.0,30.41,North,355,6.0,8.0,48,0.00,,,0.00,,2014-03-01 06:42:00,
2014-03-01 01:52:00,9.0,-7.0,30.41,North,360,4.0,8.0,48,0.00,,,0.00,,2014-03-01 06:52:00,
2014-03-01 02:22:00,8.0,-6.0,30.41,NE,36,5.0,7.0,52,0.00,,,0.00,,2014-03-01 07:22:00,
2014-03-01 02:42:00,8.0,-6.0,30.40,NE,52,4.0,7.0,53,0.00,,,0.00,,2014-03-01 07:42:00,
2014-03-01 02:52:00,8.0,-6.0,30.40,NE,53,4.0,6.0,52,0.00,,,0.00,,2014-03-01 07:52:00,
2014-03-01 03:22:00,8.0,-5.0,30.40,NE,55,4.0,6.0,55,0.00,,,0.00,,2014-03-01 08:22:00,
2014-03-01 03:52:00,8.0,-4.0,30.41,ENE,59,5.0,7.0,58,0.00,,,0.00,,2014-03-01 08:52:00,
2014-03-01 04:22:00,8.0,-2.0,30.41,ENE,60,5.0,7.0,62,0.00,,,0.00,,2014-03-01 09:22:00,
2014-03-01 04:53:00,7.0,-1.0,30.40,ENE,65,7.0,9.0,68,0.00,,,0.00,,2014-03-01 09:53:00,
2014-03-01 05:23:00,7.0,-1.0,30.40,ENE,57,7.0,9.0,70,0.00,,,0.00,,2014-03-01 10:23:00,
2014-03-01 05:43:00,7.0,-1.0,30.40,ENE,62,7.0,9.0,70,0.00,,,0.00,,2014-03-01 10:43:00,
2014-03-01 05:52:00,8.0,0.0,30.40,ENE,59,7.0,9.0,69,0.00,,,0.00,,2014-03-01 10:52:00,
2014-03-01 06:22:00,7.0,0.0,30.39,ENE,58,7.0,9.0,71,0.00,,,0.00,,2014-03-01 11:22:00,
2014-03-01 06:43:00,7.0,0.0,30.38,ENE,67,9.0,10.0,72,0.00,,,0.00,,2014-03-01 11:43:00,
2014-03-01 06:52:00,7.0,0.0,30.38,ENE,69,8.0,10.0,73,0.00,,,0.00,,2014-03-01 11:52:00,
2014-03-01 07:22:00,9.0,3.0,30.40,ENE,68,7.0,10.0,75,0.00,,,0.00,,2014-03-01 12:22:00,
2014-03-01 07:42:00,10.0,3.0,30.39,ENE,63,7.0,10.0,74,0.00,,,0.00,,2014-03-01 12:42:00,
2014-03-01 07:52:00,10.0,3.0,30.39,ENE,61,6.0,10.0,74,0.00,,,0.00,,2014-03-01 12:52:00,
2014-03-01 08:22:00,12.0,4.0,30.39,ENE,71,8.0,12.0,70,0.00,,,0.00,,2014-03-01 13:22:00,
2014-03-01 08:42:00,14.0,6.0,30.38,East,85,8.0,13.0,71,0.00,,,0.00,,2014-03-01 13:42:00,
2014-03-01 08:52:00,15.0,6.0,30.37,East,88,9.0,13.0,68,0.00,,,0.00,,2014-03-01 13:52:00,
2014-03-01 09:22:00,17.0,8.0,30.37,East,85,9.0,11.0,66,0.00,,,0.00,,2014-03-01 14:22:00,
2014-03-01 09:42:00,19.0,10.0,30.37,ESE,103,8.0,13.0,66,0.00,,,0.00,,2014-03-01 14:42:00,
2014-03-01 09:52:00,19.0,10.0,30.37,East,92,9.0,14.0,66,0.00,,,0.00,,2014-03-01 14:52:00,
2014-03-01 10:22:00,20.0,11.0,30.35,East,79,9.0,13.0,69,0.00,,,0.00,,2014-03-01 15:22:00,
2014-03-01 10:54:00,22.0,13.0,30.34,East,80,7.0,11.0,69,0.00,,,0.00,,2014-03-01 15:54:00,
2014-03-01 11:23:00,22.0,17.0,30.33,East,94,6.0,10.0,80,0.00,,,0.00,,2014-03-01 16:23:00,
2014-03-01 11:53:00,24.0,20.0,30.30,ESE,109,2.0,11.0,86,0.00,,,0.00,,2014-03-01 16:53:00,
2014-03-01 12:12:00,27.0,23.0,30.28,SW,223,7.0,12.0,83,0.00,,,0.00,,2014-03-01 17:12:00,
2014-03-01 12:22:00,27.0,22.0,30.28,SW,222,11.0,16.0,80,0.00,,,0.00,,2014-03-01 17:22:00,
2014-03-01 12:43:00,28.0,18.0,30.27,SW,223,15.0,22.0,66,0.00,,,0.00,,2014-03-01 17:43:00,
2014-03-01 12:52:00,29.0,18.0,30.26,SW,236,17.0,26.0,63,0.00,,,0.00,,2014-03-01 17:52:00,
2014-03-01 13:22:00,29.0,18.0,30.24,SSW,212,16.0,28.0,63,0.00,,,0.00,,2014-03-01 18:22:00,
2014-03-01 13:43:00,30.0,19.0,30.22,SW,221,15.0,28.0,64,0.00,,,0.00,,2014-03-01 18:43:00,
2014-03-01 13:52:00,29.0,19.0,30.22,SSW,194,13.0,26.0,67,0.00,,,0.00,,2014-03-01 18:52:00,
2014-03-01 14:22:00,29.0,20.0,30.21,SW,215,15.0,25.0,69,0.00,,,0.00,,2014-03-01 19:22:00,
2014-03-01 14:52:00,28.0,20.0,30.19,SSW,213,14.0,25.0,73,0.00,,,0.00,,2014-03-01 19:52:00,
2014-03-01 15:22:00,27.0,20.0,30.19,SSW,210,12.0,20.0,75,0.00,,,0.00,,2014-03-01 20:22:00,
2014-03-01 15:42:00,27.0,21.0,30.17,SW,218,11.0,23.0,77,0.00,,,0.00,,2014-03-01 20:42:00,
2014-03-01 15:52:00,27.0,21.0,30.16,SSW,210,10.0,20.0,77,0.00,,,0.00,,2014-03-01 20:52:00,
2014-03-01 16:22:00,27.0,20.0,30.15,SW,236,14.0,26.0,76,0.00,,,0.00,,2014-03-01 21:22:00,
2014-03-01 16:54:00,28.0,20.0,30.16,SSW,211,15.0,23.0,72,0.00,,,0.00,,2014-03-01 21:54:00,
2014-03-01 17:23:00,28.0,21.0,30.14,SSW,201,17.0,22.0,74,0.00,,,0.00,,2014-03-01 22:23:00,
2014-03-01 17:43:00,28.0,21.0,30.14,SSW,207,11.0,20.0,76,0.00,,,0.00,,2014-03-01 22:43:00,
2014-03-01 17:52:00,28.0,22.0,30.13,SW,218,11.0,20.0,77,0.00,,,0.00,,2014-03-01 22:52:00,
2014-03-01 18:22:00,29.0,23.0,30.13,SSW,205,12.0,22.0,78,0.00,,,0.00,,2014-03-01 23:22:00,
2014-03-01 18:53:00,29.0,23.0,30.11,SSW,199,13.0,23.0,78,0.00,,,0.00,,2014-03-01 23:53:00,
2014-03-01 19:22:00,29.0,23.0,30.11,SW,217,16.0,23.0,79,0.00,,,0.00,,2014-03-02 00:22:00,
2014-03-01 19:52:00,30.0,25.0,30.09,SSW,211,12.0,24.0,80,0.00,,,0.00,,2014-03-02 00:52:00,
2014-03-01 20:22:00,30.0,25.0,30.09,SW,227,15.0,21.0,80,0.00,,,0.00,,2014-03-02 01:22:00,
2014-03-01 20:52:00,30.0,25.0,30.08,SW,216,15.0,23.0,80,0.00,,,0.00,,2014-03-02 01:52:00,
2014-03-01 21:12:00,31.0,26.0,30.06,SSW,212,13.0,21.0,81,0.00,,,0.00,,2014-03-02 02:12:00,
2014-03-01 21:22:00,31.0,26.0,30.06,SSW,212,13.0,21.0,81,0.00,,,0.00,,2014-03-02 02:22:00,
2014-03-01 21:53:00,31.0,26.0,30.06,SW,236,14.0,22.0,83,0.00,,,0.00,,2014-03-02 02:53:00,
2014-03-01 22:22:00,31.0,26.0,30.05,SW,232,18.0,26.0,83,0.00,,,0.00,,2014-03-02 03:22:00,
2014-03-01 22:53:00,32.0,27.0,30.03,WSW,241,13.0,25.0,82,0.00,,,0.00,,2014-03-02 03:53:00,
2014-03-01 23:03:00,-999.0,-99.9,30.02,SW,227,13.0,25.0,-999,0.00,,,0.00,,2014-03-02 04:03:00,
2014-03-01 23:23:00,32.0,27.0,30.02,WSW,244,15.0,21.0,82,0.00,,,0.00,,2014-03-02 04:23:00,
2014-03-01 23:53:00,32.0,26.0,30.01,WSW,239,10.0,19.0,79,0.00,,,0.00,,2014-03-02 04:53:00,